Time;durP1;ratioP1;P1;durP2;ratioP2;P2;SDS_P1;SDS_P2;PMS_P1;PMS_P2;Temp;Humidity;BMP_temperature;BMP_pressure;BME280_temperature;BME280_humidity;BME280_pressure;Samples;Min_cycle;Max_cycle;Signal;HPM_P1;HPM_P2
2023/01/14 00:02:18;;;;;;;5.20;1.60;;;7.10;55.70;;;;;;20715;6836;132829;-75
2023/01/14 00:04:44;;;;;;;3.63;1.77;;;6.90;56.00;;;;;;20735;6836;117117;-75
2023/01/14 00:07:10;;;;;;;3.97;1.67;;;6.90;56.20;;;;;;20523;6836;307098;-74
2023/01/14 00:09:36;;;;;;;4.90;1.87;;;6.90;56.20;;;;;;20731;6836;116880;-76
2023/01/14 00:12:02;;;;;;;2.12;1.45;;;7.00;56.20;;;;;;20729;6836;118450;-75
2023/01/14 00:14:29;;;;;;;3.77;1.80;;;6.70;56.80;;;;;;20720;6836;117333;-75
2023/01/14 00:16:54;;;;;;;3.10;1.57;;;6.60;56.80;;;;;;20730;6836;119235;-75
2023/01/14 00:22:45;;;;;;;4.17;1.73;;;6.40;57.50;;;;;;20658;6836;117455;-76
2023/01/14 00:25:11;;;;;;;3.03;1.70;;;6.30;57.80;;;;;;20732;6836;122023;-76
2023/01/14 00:27:36;;;;;;;4.00;1.90;;;6.20;58.20;;;;;;20525;6836;307461;-76
2023/01/14 00:30:02;;;;;;;6.50;2.30;;;6.40;58.00;;;;;;20523;6836;307559;-76
2023/01/14 00:32:28;;;;;;;4.75;1.90;;;6.80;56.90;;;;;;20492;6836;340867;-76
2023/01/14 00:34:53;;;;;;;4.60;2.28;;;7.20;56.00;;;;;;20516;6836;277733;-75
2023/01/14 00:37:19;;;;;;;4.33;1.50;;;7.50;55.20;;;;;;20732;6836;119801;-76
2023/01/14 00:39:45;;;;;;;4.30;1.70;;;7.00;55.90;;;;;;20715;6836;118086;-76
2023/01/14 00:42:11;;;;;;;4.97;2.10;;;7.00;55.90;;;;;;20487;6836;307605;-77
2023/01/14 00:44:37;;;;;;;4.30;2.20;;;7.10;55.80;;;;;;20516;6836;307188;-76
2023/01/14 00:47:03;;;;;;;4.30;1.90;;;7.30;55.20;;;;;;20528;6836;277601;-76
2023/01/14 00:49:28;;;;;;;4.35;1.60;;;7.60;54.70;;;;;;20734;6836;117612;-74
2023/01/14 00:51:54;;;;;;;2.75;1.55;;;7.40;54.90;;;;;;20727;6836;117996;-74
2023/01/14 00:54:20;;;;;;;6.03;1.93;;;7.10;55.60;;;;;;20504;6836;306962;-74
2023/01/14 00:56:45;;;;;;;4.30;2.00;;;7.10;55.60;;;;;;20736;6836;118349;-74
2023/01/14 00:59:18;;;;;;;3.72;1.87;;;7.00;55.70;;;;;;20518;6836;335293;-74
2023/01/14 01:01:44;;;;;;;2.13;1.50;;;7.10;55.60;;;;;;20710;6836;116893;-75
2023/01/14 01:04:10;;;;;;;4.33;2.20;;;7.00;55.70;;;;;;20502;6835;307419;-77
2023/01/14 01:06:36;;;;;;;6.47;2.10;;;7.00;55.50;;;;;;20529;6836;305771;-75
2023/01/14 01:09:03;;;;;;;4.03;1.63;;;7.30;55.00;;;;;;20683;6851;120468;-75
2023/01/14 01:11:28;;;;;;;4.63;1.97;;;7.20;56.00;;;;;;20464;6851;329724;-75
2023/01/14 01:13:53;;;;;;;5.73;2.00;;;7.20;55.20;;;;;;20462;6851;312235;-76
2023/01/14 01:16:23;;;;;;;3.10;1.67;;;7.30;55.00;;;;;;20669;6851;118409;-73
2023/01/14 01:18:45;;;;;;;4.70;1.83;;;7.30;55.60;;;;;;20461;6851;307152;-75
2023/01/14 01:21:11;;;;;;;4.25;2.00;;;7.50;54.60;;;;;;20492;6842;306825;-75
2023/01/14 01:23:40;;;;;;;4.10;1.87;;;7.50;54.50;;;;;;20721;6836;121872;-75
2023/01/14 01:26:02;;;;;;;5.10;1.30;;;7.40;54.90;;;;;;20723;6836;117165;-75
2023/01/14 01:28:28;;;;;;;3.58;1.60;;;7.10;55.60;;;;;;20494;6836;328957;-75
2023/01/14 01:30:54;;;;;;;4.53;1.50;;;7.10;56.30;;;;;;20718;6836;117906;-75
2023/01/14 01:33:20;;;;;;;4.20;1.60;;;7.10;55.60;;;;;;20509;6836;307819;-75
2023/01/14 01:35:46;;;;;;;4.25;1.65;;;7.20;55.50;;;;;;20726;6836;119829;-75
2023/01/14 01:38:12;;;;;;;2.83;1.50;;;7.10;55.40;;;;;;20703;6836;118485;-76
2023/01/14 01:40:37;;;;;;;2.90;1.47;;;6.90;55.90;;;;;;20734;6836;117517;-75
2023/01/14 01:43:03;;;;;;;3.50;1.63;;;6.70;56.60;;;;;;20522;6836;312248;-75
2023/01/14 01:45:36;;;;;;;5.10;1.70;;;6.90;56.40;;;;;;20531;6836;306674;-75
2023/01/14 01:48:00;;;;;;;3.83;1.50;;;7.20;55.60;;;;;;20525;6836;338696;-75
2023/01/14 01:50:26;;;;;;;3.30;1.50;;;7.50;54.70;;;;;;20524;6836;121109;-75
2023/01/14 01:52:51;;;;;;;3.17;1.40;;;7.40;54.90;;;;;;20507;6836;341050;-76
2023/01/14 01:55:19;;;;;;;4.80;1.67;;;7.50;54.80;;;;;;20511;6836;278268;-76
2023/01/14 01:57:43;;;;;;;4.78;1.80;;;7.70;54.40;;;;;;20693;6836;118750;-75
2023/01/14 02:00:09;;;;;;;4.90;1.87;;;7.50;54.60;;;;;;20487;6836;336388;-76
2023/01/14 02:02:34;;;;;;;4.05;1.80;;;7.50;54.50;;;;;;20479;6836;311181;-75
2023/01/14 02:05:00;;;;;;;4.00;1.30;;;7.70;54.10;;;;;;20739;6836;117199;-76
2023/01/14 02:07:25;;;;;;;4.20;1.37;;;7.50;54.30;;;;;;20733;6836;123407;-75
2023/01/14 02:09:54;;;;;;;4.53;1.37;;;7.20;55.00;;;;;;20735;6836;118217;-75
2023/01/14 02:12:40;;;;;;;2.63;1.20;;;6.80;56.60;;;;;;20683;6836;141412;-76
2023/01/14 02:15:29;;;;;;;3.73;1.53;;;6.70;56.50;;;;;;20520;6834;307104;-75
2023/01/14 02:18:18;;;;;;;3.13;1.57;;;7.00;56.10;;;;;;20539;6836;310957;-75
2023/01/14 02:20:43;;;;;;;3.03;1.10;;;7.30;55.10;;;;;;20734;6836;121533;-75
2023/01/14 02:23:38;;;;;;;1.77;1.23;;;7.30;55.30;;;;;;20707;6836;117231;-75
2023/01/14 02:26:43;;;;;;;2.97;1.70;;;7.00;55.90;;;;;;20527;6836;278835;-76
2023/01/14 02:29:25;;;;;;;3.47;1.30;;;7.20;55.60;;;;;;20741;6836;119139;-75
2023/01/14 02:32:01;;;;;;;3.47;1.57;;;7.10;55.80;;;;;;20496;6836;310294;-75
2023/01/14 02:34:32;;;;;;;1.83;1.10;;;7.10;55.50;;;;;;20689;6836;117803;-76
2023/01/14 02:37:05;;;;;;;1.70;1.20;;;7.10;55.60;;;;;;20730;6836;116913;-76
2023/01/14 02:39:37;;;;;;;3.12;1.23;;;6.80;56.20;;;;;;20506;6836;306987;-76
2023/01/14 02:44:52;;;;;;;2.97;1.40;;;7.30;55.30;;;;;;20527;6836;277523;-75
2023/01/14 02:47:21;;;;;;;3.23;1.70;;;7.40;54.80;;;;;;20702;6836;123042;-75
2023/01/14 02:49:46;;;;;;;3.43;1.10;;;7.40;54.80;;;;;;20721;6836;123125;-75
2023/01/14 02:52:12;;;;;;;3.72;1.60;;;7.10;55.50;;;;;;20474;6836;307446;-76
2023/01/14 02:54:38;;;;;;;1.77;0.80;;;7.10;55.70;;;;;;20699;6836;117757;-75
2023/01/14 02:57:04;;;;;;;5.20;1.17;;;7.10;55.70;;;;;;20733;6836;117321;-76
2023/01/14 02:59:46;;;;;;;3.43;1.40;;;6.90;56.20;;;;;;19991;6836;119155;-76
2023/01/14 03:02:34;;;;;;;2.53;1.53;;;6.70;56.20;;;;;;20453;6836;322154;-76
2023/01/14 03:05:10;;;;;;;3.80;1.75;;;6.90;56.30;;;;;;20525;6836;304428;-75
2023/01/14 03:07:42;;;;;;;2.57;1.27;;;7.20;55.30;;;;;;20707;6836;116974;-75
2023/01/14 03:10:07;;;;;;;3.27;1.60;;;7.10;55.40;;;;;;20513;6836;299386;-75
2023/01/14 03:12:46;;;;;;;2.43;1.40;;;7.20;55.30;;;;;;20582;6836;124685;-76
2023/01/14 03:15:19;;;;;;;3.80;1.17;;;7.10;55.40;;;;;;20720;6836;118926;-76
2023/01/14 03:18:07;;;;;;;3.50;1.40;;;6.80;56.10;;;;;;20383;6836;340437;-75
2023/01/14 03:20:36;;;;;;;3.63;1.60;;;6.90;55.90;;;;;;20662;6836;120272;-76
2023/01/14 03:23:01;;;;;;;3.90;1.27;;;6.80;56.00;;;;;;20734;6836;116973;-77
2023/01/14 03:25:27;;;;;;;3.47;1.65;;;6.60;56.50;;;;;;20517;6836;278984;-76
2023/01/14 03:27:52;;;;;;;4.00;1.50;;;6.70;56.40;;;;;;20526;6835;307922;-75
2023/01/14 03:30:18;;;;;;;3.85;1.50;;;7.10;55.60;;;;;;20514;6836;285392;-76
2023/01/14 03:32:54;;;;;;;2.70;1.23;;;7.30;54.80;;;;;;20519;6836;340520;-76
2023/01/14 03:35:21;;;;;;;4.40;1.65;;;7.60;54.20;;;;;;20509;6836;277769;-75
2023/01/14 03:37:50;;;;;;;3.53;1.60;;;7.70;53.70;;;;;;20528;6836;298295;-75
2023/01/14 03:40:17;;;;;;;3.17;1.37;;;7.60;53.70;;;;;;20709;6836;127481;-75
2023/01/14 03:42:42;;;;;;;2.92;1.35;;;7.60;53.70;;;;;;20532;6836;286233;-76
2023/01/14 03:45:11;;;;;;;2.93;1.40;;;7.50;53.80;;;;;;20522;6836;306632;-76
2023/01/14 03:47:36;;;;;;;3.20;1.17;;;7.70;53.50;;;;;;20705;6838;117199;-76
2023/01/14 03:50:02;;;;;;;3.20;1.10;;;7.50;53.80;;;;;;20690;6853;118293;-76
2023/01/14 03:52:51;;;;;;;2.67;1.10;;;7.10;54.40;;;;;;20633;6836;119158;-76
2023/01/14 03:55:40;;;;;;;1.77;1.23;;;6.60;55.90;;;;;;20708;6836;120420;-75
2023/01/14 03:58:13;;;;;;;3.67;1.40;;;6.80;55.80;;;;;;20533;6836;308711;-75
2023/01/14 04:00:42;;;;;;;1.97;1.20;;;6.80;55.80;;;;;;20731;6836;117431;-75
2023/01/14 04:03:09;;;;;;;3.83;1.50;;;6.80;55.80;;;;;;20510;6836;279800;-75
2023/01/14 04:05:33;;;;;;;4.60;1.67;;;7.00;55.40;;;;;;20518;6836;311077;-74
2023/01/14 04:07:59;;;;;;;4.07;1.53;;;7.60;53.90;;;;;;20505;6838;308250;-74
2023/01/14 04:10:25;;;;;;;3.07;1.40;;;7.50;53.80;;;;;;20450;6853;309228;-75
2023/01/14 04:15:36;;;;;;;2.62;1.40;;;7.90;52.70;;;;;;20528;6836;306790;-75
2023/01/14 04:18:02;;;;;;;2.77;1.47;;;8.00;52.10;;;;;;20719;6844;118773;-75
2023/01/14 04:20:28;;;;;;;3.77;1.30;;;7.70;52.60;;;;;;20501;6838;284240;-75
2023/01/14 04:22:54;;;;;;;2.13;1.20;;;7.70;52.50;;;;;;20586;6820;306254;-75
2023/01/14 04:25:19;;;;;;;3.93;1.37;;;7.70;52.50;;;;;;20794;6820;117230;-75
2023/01/14 04:27:46;;;;;;;3.23;1.30;;;7.50;53.10;;;;;;20583;6820;306579;-75
2023/01/14 04:30:12;;;;;;;2.97;1.30;;;7.50;53.10;;;;;;20517;6838;307623;-76
2023/01/14 04:32:38;;;;;;;2.80;1.20;;;7.70;52.90;;;;;;20412;6820;306429;-75
2023/01/14 04:35:05;;;;;;;2.20;1.12;;;8.00;52.40;;;;;;20507;6838;307589;-75
2023/01/14 04:37:30;;;;;;;3.93;1.33;;;7.90;52.30;;;;;;20693;6851;118290;-75
2023/01/14 04:39:56;;;;;;;2.50;1.47;;;7.80;52.90;;;;;;20728;6841;117216;-75
2023/01/14 04:42:28;;;;;;;3.35;1.30;;;7.50;53.70;;;;;;20514;6836;336507;-75
2023/01/14 04:44:57;;;;;;;3.37;1.33;;;7.50;53.60;;;;;;20536;6836;299241;-75
2023/01/14 04:47:24;;;;;;;4.30;1.47;;;7.80;53.10;;;;;;20691;6851;118348;-75
2023/01/14 04:49:50;;;;;;;3.00;1.15;;;7.70;53.30;;;;;;20488;6851;308816;-75
2023/01/14 04:52:16;;;;;;;4.47;1.25;;;8.00;52.60;;;;;;20513;6838;278147;-76
2023/01/14 04:54:42;;;;;;;3.30;1.30;;;7.90;52.50;;;;;;20757;6833;117300;-76
2023/01/14 04:57:07;;;;;;;1.00;1.00;;;7.80;52.80;;;;;;20736;6838;120707;-75
2023/01/14 04:59:33;;;;;;;2.62;1.00;;;7.60;53.50;;;;;;20736;6838;119404;-75
2023/01/14 05:01:58;;;;;;;4.03;0.90;;;7.30;54.10;;;;;;20714;6838;116690;-75
2023/01/14 05:04:24;;;;;;;1.30;1.20;;;7.00;54.50;;;;;;20472;6833;307709;-79
2023/01/14 05:06:49;;;;;;;3.47;1.27;;;7.10;54.20;;;;;;20735;6838;117045;-77
2023/01/14 05:09:15;;;;;;;2.70;1.27;;;7.10;54.20;;;;;;20539;6833;277889;-78
2023/01/14 05:11:41;;;;;;;1.83;1.30;;;7.30;54.10;;;;;;20754;6833;118112;-75
2023/01/14 05:14:06;;;;;;;2.97;1.45;;;7.20;54.10;;;;;;20547;6827;339779;-74
2023/01/14 05:16:32;;;;;;;2.90;1.30;;;7.30;53.60;;;;;;20509;6838;278508;-75
2023/01/14 05:18:57;;;;;;;2.83;1.40;;;7.60;53.10;;;;;;20536;6833;311226;-75
2023/01/14 05:21:24;;;;;;;3.33;1.50;;;7.90;52.60;;;;;;20545;6833;277638;-74
2023/01/14 05:23:50;;;;;;;3.07;1.30;;;7.90;52.60;;;;;;20729;6838;119332;-74
2023/01/14 05:26:16;;;;;;;2.92;1.40;;;7.90;52.60;;;;;;20526;6833;278000;-75
2023/01/14 05:28:41;;;;;;;3.80;1.70;;;8.00;52.30;;;;;;20737;6838;118464;-75
2023/01/14 05:31:07;;;;;;;2.83;1.60;;;7.80;52.60;;;;;;20540;6833;341332;-75
2023/01/14 05:33:33;;;;;;;6.12;2.10;;;7.90;52.80;;;;;;20548;6833;307408;-74
2023/01/14 05:35:58;;;;;;;20.50;18.55;;;8.10;51.60;;;;;;20526;6838;280023;-74
2023/01/14 05:38:25;;;;;;;4.50;2.00;;;8.30;51.10;;;;;;20500;6838;308231;-75
2023/01/14 05:40:51;;;;;;;4.43;2.13;;;8.40;50.50;;;;;;20509;6838;306446;-75
2023/01/14 05:46:02;;;;;;;1.93;1.30;;;8.60;50.10;;;;;;20768;6833;119198;-74
2023/01/14 05:48:27;;;;;;;4.47;1.48;;;8.40;50.80;;;;;;20712;6838;121704;-73
2023/01/14 05:50:53;;;;;;;2.35;1.10;;;8.00;51.70;;;;;;20548;6831;340410;-74
2023/01/14 05:53:18;;;;;;;2.43;1.40;;;7.90;51.60;;;;;;20729;6838;117010;-76
2023/01/14 05:55:44;;;;;;;2.57;1.50;;;7.80;52.00;;;;;;20527;6838;315568;-74
2023/01/14 05:58:10;;;;;;;5.10;1.98;;;7.90;52.00;;;;;;20538;6838;277675;-73
2023/01/14 06:06:24;;;;;;;3.73;1.50;;;8.50;50.80;;;;;;20760;6827;118498;-74
2023/01/14 06:08:50;;;;;;;4.63;1.70;;;8.20;51.30;;;;;;20541;6827;307490;-74
2023/01/14 06:11:18;;;;;;;3.40;1.47;;;8.20;51.60;;;;;;20718;6838;117044;-74
2023/01/14 06:13:41;;;;;;;3.67;1.30;;;8.00;51.90;;;;;;20715;6833;117536;-74
2023/01/14 06:16:07;;;;;;;5.57;1.73;;;7.70;52.60;;;;;;20543;6833;277638;-74
2023/01/14 06:18:43;;;;;;;4.33;1.83;;;7.80;52.60;;;;;;20523;6833;314062;-76
2023/01/14 06:21:08;;;;;;;5.30;1.87;;;8.00;52.40;;;;;;20522;6838;308156;-75
2023/01/14 06:23:35;;;;;;;6.83;1.93;;;8.30;51.80;;;;;;20724;6838;117822;-75
2023/01/14 06:26:00;;;;;;;4.80;2.00;;;8.10;52.10;;;;;;20501;6838;337074;-75
2023/01/14 06:28:26;;;;;;;4.78;1.92;;;8.20;52.20;;;;;;20731;6833;119182;-75
2023/01/14 06:30:52;;;;;;;3.83;1.37;;;7.80;53.10;;;;;;20724;6838;117376;-76
2023/01/14 06:33:18;;;;;;;7.07;1.70;;;7.70;53.00;;;;;;20734;6838;117143;-77
2023/01/14 06:35:43;;;;;;;6.75;2.08;;;7.50;53.60;;;;;;20492;6838;278571;-75
2023/01/14 06:38:09;;;;;;;4.87;2.00;;;7.60;53.60;;;;;;20512;6838;307554;-75
2023/01/14 06:40:35;;;;;;;6.90;2.43;;;8.10;52.70;;;;;;20501;6838;306569;-76
2023/01/14 06:43:01;;;;;;;6.17;2.77;;;8.10;52.70;;;;;;20537;6833;285407;-75
2023/01/14 06:45:26;;;;;;;5.20;2.33;;;8.30;52.30;;;;;;20498;6838;312471;-75
2023/01/14 06:47:52;;;;;;;5.15;2.37;;;8.40;52.00;;;;;;20717;6843;117423;-75
2023/01/14 06:50:18;;;;;;;2.83;1.50;;;8.20;53.00;;;;;;20644;6848;118286;-76
2023/01/14 06:52:43;;;;;;;7.03;2.43;;;7.90;53.00;;;;;;20485;6848;311615;-75
2023/01/14 06:55:09;;;;;;;5.97;2.10;;;7.90;53.10;;;;;;20688;6847;118866;-75
2023/01/14 06:57:35;;;;;;;7.40;2.37;;;7.70;54.00;;;;;;20756;6832;120920;-75
2023/01/14 07:00:00;;;;;;;3.03;1.57;;;7.60;54.50;;;;;;20750;6832;117332;-75
2023/01/14 07:02:27;;;;;;;5.62;2.08;;;7.40;55.10;;;;;;20715;6830;120495;-74
2023/01/14 07:04:53;;;;;;;4.23;1.60;;;7.30;55.70;;;;;;20752;6831;117054;-75
2023/01/14 07:07:19;;;;;;;5.33;2.67;;;7.20;55.30;;;;;;20537;6831;305652;-77
2023/01/14 07:09:45;;;;;;;3.90;1.55;;;7.60;55.20;;;;;;20758;6832;118348;-76
2023/01/14 07:12:11;;;;;;;7.57;2.00;;;7.60;55.10;;;;;;20759;6832;117309;-77
2023/01/14 07:14:37;;;;;;;5.00;2.30;;;7.70;55.00;;;;;;20488;6847;278920;-73
2023/01/14 07:17:04;;;;;;;4.80;1.90;;;7.70;55.00;;;;;;20706;6837;117511;-76
2023/01/14 07:19:33;;;;;;;5.47;2.53;;;7.70;55.00;;;;;;20525;6837;278344;-78
2023/01/14 07:21:59;;;;;;;6.07;2.67;;;8.20;53.60;;;;;;20537;6837;279348;-76
2023/01/14 07:24:24;;;;;;;4.40;1.97;;;8.20;53.60;;;;;;20677;6851;122345;-76
2023/01/14 07:26:50;;;;;;;3.87;1.60;;;8.20;53.70;;;;;;20699;6851;117545;-76
2023/01/14 07:29:16;;;;;;;4.82;2.22;;;8.00;54.30;;;;;;20535;6837;299483;-74
2023/01/14 07:31:45;;;;;;;5.90;1.98;;;8.10;54.00;;;;;;20746;6837;118647;-76
2023/01/14 07:34:10;;;;;;;4.97;2.28;;;8.10;54.20;;;;;;20529;6837;337046;-76
2023/01/14 07:36:36;;;;;;;6.20;2.50;;;8.20;53.70;;;;;;20463;6851;307620;-77
2023/01/14 07:39:01;;;;;;;4.87;2.30;;;8.50;53.20;;;;;;20704;6852;117136;-76
2023/01/14 07:41:27;;;;;;;6.57;2.43;;;8.50;53.40;;;;;;20492;6847;306463;-76
2023/01/14 07:43:53;;;;;;;4.62;2.42;;;8.60;53.00;;;;;;20740;6837;118658;-76
2023/01/14 07:46:18;;;;;;;8.10;2.53;;;8.50;53.30;;;;;;20514;6837;309523;-77
2023/01/14 07:48:44;;;;;;;5.83;2.40;;;8.60;52.90;;;;;;20531;6837;287543;-77
2023/01/14 07:51:09;;;;;;;3.78;2.00;;;8.80;52.40;;;;;;20529;6837;307940;-77
2023/01/14 07:53:35;;;;;;;5.10;2.55;;;9.10;52.00;;;;;;20685;6852;117021;-77
2023/01/14 07:56:00;;;;;;;5.47;2.30;;;8.90;52.30;;;;;;20531;6837;281310;-76
2023/01/14 07:58:26;;;;;;;6.23;2.47;;;9.00;51.90;;;;;;20726;6837;120797;-77
2023/01/14 08:00:53;;;;;;;6.20;2.40;;;8.80;52.20;;;;;;20541;6837;307609;-76
2023/01/14 08:03:17;;;;;;;4.73;2.60;;;8.90;52.30;;;;;;20530;6837;307611;-76
2023/01/14 08:05:43;;;;;;;4.85;2.97;;;9.20;51.90;;;;;;20537;6837;308486;-76
2023/01/14 08:08:08;;;;;;;6.30;4.00;;;9.40;51.40;;;;;;20538;6837;283235;-77
2023/01/14 08:10:34;;;;;;;5.28;3.20;;;9.60;51.10;;;;;;20720;6837;117312;-76
2023/01/14 08:13:00;;;;;;;6.10;3.80;;;9.40;51.60;;;;;;20743;6835;116842;-75
2023/01/14 08:15:26;;;;;;;6.13;3.43;;;8.90;53.80;;;;;;20745;6836;117281;-76
2023/01/14 08:17:53;;;;;;;4.50;2.23;;;8.90;53.00;;;;;;20736;6836;116896;-75
2023/01/14 08:20:22;;;;;;;7.43;2.60;;;8.70;53.40;;;;;;20714;6836;117902;-76
2023/01/14 08:22:44;;;;;;;8.27;2.87;;;8.50;53.80;;;;;;20754;6836;67844;-75
2023/01/14 08:25:09;;;;;;;6.60;4.10;;;8.40;54.20;;;;;;20749;6837;117154;-75
2023/01/14 08:27:35;;;;;;;9.57;5.27;;;8.20;54.40;;;;;;20753;6837;117288;-74
2023/01/14 08:30:02;;;;;;;5.60;2.92;;;8.10;54.70;;;;;;20746;6837;117954;-76
2023/01/14 08:32:28;;;;;;;5.32;3.20;;;8.10;55.20;;;;;;20554;6822;307074;-73
2023/01/14 08:34:54;;;;;;;5.53;2.95;;;8.60;55.50;;;;;;20787;6822;120000;-73
2023/01/14 08:37:19;;;;;;;3.70;2.80;;;8.50;55.50;;;;;;20528;6837;293959;-72
2023/01/14 08:39:45;;;;;;;4.65;3.10;;;8.80;55.10;;;;;;20748;6837;120380;-76
2023/01/14 08:42:11;;;;;;;6.37;3.77;;;9.00;55.20;;;;;;20541;6837;278514;-75
2023/01/14 08:44:37;;;;;;;6.43;3.63;;;9.60;53.80;;;;;;20366;6837;312559;-72
2023/01/14 08:47:04;;;;;;;4.70;3.13;;;9.50;53.70;;;;;;20740;6837;118064;-77
2023/01/14 08:49:31;;;;;;;5.03;3.00;;;9.60;53.90;;;;;;20534;6837;307905;-79
2023/01/14 08:51:55;;;;;;;4.55;2.95;;;9.70;53.10;;;;;;20733;6837;116959;-77
2023/01/14 08:54:21;;;;;;;5.07;3.03;;;9.70;53.40;;;;;;20507;6837;342392;-73
2023/01/14 08:56:49;;;;;;;3.77;2.60;;;9.80;53.10;;;;;;20768;6837;116927;-76
2023/01/14 08:59:15;;;;;;;5.53;2.90;;;9.80;53.40;;;;;;20575;6822;288359;-72
2023/01/14 09:01:40;;;;;;;4.37;2.67;;;9.90;52.80;;;;;;20740;6837;116923;-74
2023/01/14 09:04:07;;;;;;;5.97;2.63;;;9.90;53.20;;;;;;20791;6822;116768;-74
2023/01/14 09:17:04;;;;;;;4.37;2.77;;;9.70;53.60;;;;;;20487;6837;307893;-77
2023/01/14 09:17:16;;;;;;;3.87;2.90;;;10.20;51.10;;;;;;20533;6837;308601;-76
2023/01/14 09:19:49;;;;;;;6.78;2.47;;;10.30;50.70;;;;;;20741;6837;122955;-75
2023/01/14 09:22:18;;;;;;;5.13;2.60;;;10.40;51.10;;;;;;20508;6837;282599;-74
2023/01/14 09:24:43;;;;;;;6.70;2.60;;;10.40;50.80;;;;;;20739;6835;117758;-76
2023/01/14 09:27:10;;;;;;;2.90;2.57;;;10.30;51.40;;;;;;20530;6836;309133;-74
2023/01/14 09:29:36;;;;;;;3.13;2.30;;;10.30;51.00;;;;;;20744;6836;118258;-72
2023/01/14 09:32:01;;;;;;;3.65;2.50;;;10.20;51.40;;;;;;20534;6836;282633;-72
2023/01/14 09:34:28;;;;;;;4.25;2.22;;;10.30;51.20;;;;;;20725;6836;119339;-73
2023/01/14 09:36:54;;;;;;;4.23;2.30;;;10.20;51.50;;;;;;20794;6822;117689;-73
2023/01/14 09:39:20;;;;;;;3.90;2.50;;;10.00;52.10;;;;;;20526;6837;307649;-75
2023/01/14 09:41:49;;;;;;;5.47;2.37;;;10.10;51.60;;;;;;20535;6837;307285;-73
2023/01/14 09:44:14;;;;;;;2.73;2.00;;;10.40;51.00;;;;;;20710;6837;117084;-73
2023/01/14 09:46:39;;;;;;;4.55;2.25;;;10.30;51.30;;;;;;20747;6837;118992;-74
2023/01/14 09:49:05;;;;;;;4.07;2.20;;;10.10;51.90;;;;;;20749;6837;117383;-73
2023/01/14 09:51:37;;;;;;;2.93;2.37;;;9.90;53.50;;;;;;20737;6837;117125;-75
2023/01/14 09:54:03;;;;;;;3.80;2.57;;;9.70;54.00;;;;;;20494;6837;281834;-74
2023/01/14 09:56:28;;;;;;;3.87;2.70;;;9.90;53.50;;;;;;20539;6822;311254;-73
2023/01/14 09:59:20;;;;;;;4.68;2.40;;;10.30;51.90;;;;;;20744;6837;119691;-76
2023/01/14 10:01:59;;;;;;;3.77;2.40;;;10.30;52.00;;;;;;20738;6837;117423;-73
2023/01/14 10:04:44;;;;;;;4.70;2.37;;;10.10;52.60;;;;;;20769;6822;123958;-73
2023/01/14 10:07:10;;;;;;;2.77;2.27;;;10.10;53.20;;;;;;20720;6837;117495;-73
2023/01/14 10:09:35;;;;;;;5.43;3.10;;;10.00;53.60;;;;;;20526;6837;278498;-74
2023/01/14 10:12:02;;;;;;;6.03;3.43;;;10.50;51.60;;;;;;20522;6837;337489;-72
2023/01/14 10:14:27;;;;;;;4.90;3.60;;;10.50;51.60;;;;;;20503;6837;335595;-73
2023/01/14 10:16:54;;;;;;;4.37;3.17;;;10.90;51.20;;;;;;20515;6837;285260;-73
2023/01/14 10:19:25;;;;;;;4.87;3.23;;;11.10;50.80;;;;;;20725;6837;117583;-74
2023/01/14 10:22:12;;;;;;;3.10;2.30;;;10.90;51.50;;;;;;20648;6837;117476;-75
2023/01/14 10:24:39;;;;;;;5.67;2.87;;;10.90;51.50;;;;;;20158;6822;118013;-73
2023/01/14 10:27:05;;;;;;;3.37;3.07;;;10.70;52.40;;;;;;20519;6837;282144;-73
2023/01/14 10:29:32;;;;;;;4.27;1.90;;;10.70;51.60;;;;;;20714;6837;120374;-73
2023/01/14 10:31:58;;;;;;;3.77;2.50;;;10.80;52.00;;;;;;20562;6822;306624;-75
2023/01/14 10:34:32;;;;;;;3.60;2.97;;;10.90;51.30;;;;;;20514;6837;341158;-75
2023/01/14 10:36:58;;;;;;;3.80;2.65;;;11.10;50.90;;;;;;20540;6835;278210;-76
2023/01/14 10:39:23;;;;;;;3.55;3.25;;;11.50;50.10;;;;;;20747;6836;117407;-77
2023/01/14 10:41:49;;;;;;;2.73;2.53;;;11.30;50.40;;;;;;20743;6836;117797;-75
2023/01/14 10:44:14;;;;;;;3.20;2.65;;;11.10;51.20;;;;;;20666;6836;117662;-72
2023/01/14 10:46:40;;;;;;;2.57;2.30;;;10.90;52.00;;;;;;20671;6822;121234;-74
2023/01/14 10:49:24;;;;;;;2.58;2.05;;;10.60;53.00;;;;;;20738;6837;118363;-74
2023/01/14 10:51:53;;;;;;;1.47;1.33;;;10.60;53.00;;;;;;20727;6822;120996;-73
2023/01/14 10:54:18;;;;;;;2.90;2.70;;;10.50;53.30;;;;;;20512;6837;278007;-73
2023/01/14 10:56:47;;;;;;;3.47;2.42;;;10.70;52.10;;;;;;20532;6837;296547;-72
2023/01/14 10:59:36;;;;;;;2.17;1.73;;;11.10;51.50;;;;;;20529;6837;278082;-70
2023/01/14 11:02:02;;;;;;;2.47;1.53;;;11.40;50.80;;;;;;20733;6837;117430;-71
2023/01/14 11:04:27;;;;;;;2.08;1.30;;;11.30;51.20;;;;;;20505;6837;302120;-71
2023/01/14 11:06:54;;;;;;;1.62;1.40;;;11.60;49.80;;;;;;20539;6822;307439;-73
2023/01/14 11:09:29;;;;;;;1.70;1.60;;;11.60;49.80;;;;;;20734;6837;117440;-70
2023/01/14 11:11:55;;;;;;;2.53;1.30;;;11.50;50.30;;;;;;20742;6837;117223;-72
2023/01/14 11:14:24;;;;;;;1.50;1.37;;;11.30;51.10;;;;;;20504;6837;307471;-73
2023/01/14 11:16:49;;;;;;;2.10;1.90;;;11.40;50.70;;;;;;20750;6822;117724;-74
2023/01/14 11:19:15;;;;;;;1.70;1.40;;;11.30;51.00;;;;;;20527;6837;308495;-72
2023/01/14 11:21:44;;;;;;;1.62;1.05;;;11.40;50.20;;;;;;20750;6837;117089;-72
2023/01/14 11:24:39;;;;;;;3.22;1.70;;;11.30;50.60;;;;;;20538;6837;282559;-71
2023/01/14 11:27:05;;;;;;;3.07;2.87;;;11.40;50.20;;;;;;19499;7181;317703;-72
2023/01/14 11:29:30;;;;;;;2.95;2.75;;;11.70;49.10;;;;;;20064;6852;308532;-71
2023/01/14 11:32:12;;;;;;;2.00;1.60;;;11.90;48.80;;;;;;20526;6837;294554;-72
2023/01/14 11:34:38;;;;;;;2.37;1.30;;;12.10;48.30;;;;;;20487;6837;328280;-72
2023/01/14 11:37:10;;;;;;;2.15;0.80;;;12.20;47.90;;;;;;20748;6837;117547;-71
2023/01/14 11:39:35;;;;;;;0.83;0.80;;;12.00;48.50;;;;;;20741;6837;117150;-72
2023/01/14 11:42:05;;;;;;;1.13;1.00;;;11.40;50.10;;;;;;20736;6837;118098;-71
2023/01/14 11:44:30;;;;;;;1.20;1.10;;;11.40;50.10;;;;;;20452;6837;277680;-72
2023/01/14 11:47:02;;;;;;;1.92;1.23;;;11.40;49.30;;;;;;20528;6837;308095;-72
2023/01/14 11:49:28;;;;;;;1.33;1.10;;;11.70;48.70;;;;;;20663;6851;117545;-72
2023/01/14 11:52:03;;;;;;;1.47;1.10;;;11.60;49.10;;;;;;20481;6851;293792;-72
2023/01/14 11:54:38;;;;;;;1.00;1.00;;;11.70;48.60;;;;;;20679;6851;117580;-71
2023/01/14 11:57:03;;;;;;;1.30;0.90;;;11.60;49.20;;;;;;20484;6851;308521;-73
2023/01/14 11:59:32;;;;;;;1.37;1.10;;;11.70;48.60;;;;;;20698;6851;118632;-72
2023/01/14 12:02:01;;;;;;;1.00;0.87;;;11.60;49.20;;;;;;20733;6837;117236;-70
2023/01/14 12:04:40;;;;;;;1.23;1.03;;;11.40;49.90;;;;;;20714;6837;118743;-71
2023/01/14 12:07:05;;;;;;;2.07;1.60;;;11.20;50.50;;;;;;19968;6837;278565;-72
2023/01/14 12:09:34;;;;;;;2.95;2.03;;;11.30;49.50;;;;;;20473;6851;308241;-71
2023/01/14 12:12:14;;;;;;;2.30;1.80;;;11.90;48.40;;;;;;20482;6852;278521;-70
2023/01/14 12:17:41;;;;;;;5.47;2.20;;;11.80;48.90;;;;;;20660;6837;117885;-70
2023/01/14 12:20:13;;;;;;;2.70;2.40;;;11.50;49.60;;;;;;20519;6837;278669;-72
2023/01/14 12:22:39;;;;;;;2.47;1.97;;;11.60;48.90;;;;;;20723;6837;117631;-71
2023/01/14 12:25:08;;;;;;;3.65;2.53;;;11.50;49.40;;;;;;20712;6837;119673;-72
2023/01/14 12:27:53;;;;;;;4.28;2.60;;;11.20;49.90;;;;;;20506;6837;278196;-71
2023/01/14 12:30:18;;;;;;;3.12;2.78;;;11.30;49.10;;;;;;20488;6837;340988;-72
2023/01/14 12:33:14;;;;;;;6.18;4.60;;;11.60;48.30;;;;;;20489;6837;307893;-73
2023/01/14 12:35:52;;;;;;;4.13;2.80;;;11.80;47.60;;;;;;20689;6837;117313;-71
2023/01/14 12:47:30;;;;;;;3.37;2.40;;;11.10;49.60;;;;;;20477;6827;278418;-73
2023/01/14 12:49:56;;;;;;;4.03;2.43;;;11.20;48.80;;;;;;20420;6827;307499;-74
2023/01/14 12:52:21;;;;;;;43.07;28.23;;;11.50;48.20;;;;;;20690;6827;121438;-74
2023/01/14 12:54:47;;;;;;;66.20;50.77;;;11.30;48.60;;;;;;20653;6827;121417;-74
2023/01/14 12:57:12;;;;;;;26.57;24.33;;;11.10;49.20;;;;;;20498;6827;277719;-74
2023/01/14 12:59:38;;;;;;;7.30;5.93;;;11.20;48.50;;;;;;20727;6825;117988;-73
2023/01/14 13:02:07;;;;;;;6.18;4.80;;;11.10;49.00;;;;;;20724;6826;117100;-73
2023/01/14 13:04:40;;;;;;;4.87;4.30;;;10.80;49.60;;;;;;20724;6827;118395;-74
2023/01/14 13:07:05;;;;;;;4.40;3.50;;;10.60;50.10;;;;;;20525;6827;307485;-73
2023/01/14 13:09:31;;;;;;;4.57;3.62;;;10.80;49.70;;;;;;20547;6827;283102;-74
2023/01/14 13:11:56;;;;;;;5.37;4.00;;;11.10;49.20;;;;;;20525;6827;307027;-71
2023/01/14 13:14:38;;;;;;;7.03;5.37;;;11.40;48.40;;;;;;20518;6827;278164;-75
2023/01/14 13:17:18;;;;;;;4.90;4.20;;;11.60;47.90;;;;;;20526;6827;286195;-73
2023/01/14 13:19:51;;;;;;;4.40;4.00;;;11.90;47.20;;;;;;20328;6827;293498;-72
2023/01/14 13:22:37;;;;;;;4.83;4.13;;;11.90;47.10;;;;;;20530;6827;277535;-73
2023/01/14 13:25:03;;;;;;;5.30;4.30;;;12.00;47.00;;;;;;20539;6827;310597;-79
2023/01/14 13:27:35;;;;;;;5.93;3.62;;;12.10;46.90;;;;;;20534;6827;277515;-72